sensor_id;sensor_type;location;lat;lon;timestamp;temperature;humidity
2024;DHT22;1016;48.770;9.154;2022-12-17T00:00:18;2.50;99.90
2024;DHT22;1016;48.770;9.154;2022-12-17T00:03:02;2.50;99.90
2024;DHT22;1016;48.770;9.154;2022-12-17T00:05:46;2.40;99.90
2024;DHT22;1016;48.770;9.154;2022-12-17T00:08:31;2.30;99.90
2024;DHT22;1016;48.770;9.154;2022-12-17T00:11:15;2.30;99.90
2024;DHT22;1016;48.770;9.154;2022-12-17T00:13:59;2.20;99.90
2024;DHT22;1016;48.770;9.154;2022-12-17T00:16:43;2.20;99.90
2024;DHT22;1016;48.770;9.154;2022-12-17T00:19:27;2.20;99.90
2024;DHT22;1016;48.770;9.154;2022-12-17T00:22:11;2.10;99.90
2024;DHT22;1016;48.770;9.154;2022-12-17T00:24:55;2.10;99.90
2024;DHT22;1016;48.770;9.154;2022-12-17T00:27:39;2.20;99.90
2024;DHT22;1016;48.770;9.154;2022-12-17T00:30:23;2.10;99.90
2024;DHT22;1016;48.770;9.154;2022-12-17T00:33:07;2.10;99.90
2024;DHT22;1016;48.770;9.154;2022-12-17T00:35:52;2.10;99.90
2024;DHT22;1016;48.770;9.154;2022-12-17T00:38:37;2.10;99.90
2024;DHT22;1016;48.770;9.154;2022-12-17T00:41:21;2.20;99.90
2024;DHT22;1016;48.770;9.154;2022-12-17T00:44:05;2.20;99.90
2024;DHT22;1016;48.770;9.154;2022-12-17T00:46:49;2.20;99.90
2024;DHT22;1016;48.770;9.154;2022-12-17T00:49:33;2.20;99.90
2024;DHT22;1016;48.770;9.154;2022-12-17T00:52:17;2.20;99.90
2024;DHT22;1016;48.770;9.154;2022-12-17T00:55:01;2.10;99.90
2024;DHT22;1016;48.770;9.154;2022-12-17T00:57:45;2.10;99.90
2024;DHT22;1016;48.770;9.154;2022-12-17T01:00:29;2.10;99.90
2024;DHT22;1016;48.770;9.154;2022-12-17T01:03:13;2.00;99.90
2024;DHT22;1016;48.770;9.154;2022-12-17T01:06:12;2.00;99.90
2024;DHT22;1016;48.770;9.154;2022-12-17T01:08:56;1.90;99.90
2024;DHT22;1016;48.770;9.154;2022-12-17T01:11:40;1.90;99.90
2024;DHT22;1016;48.770;9.154;2022-12-17T01:14:25;1.80;99.90
2024;DHT22;1016;48.770;9.154;2022-12-17T01:17:09;1.80;99.90
2024;DHT22;1016;48.770;9.154;2022-12-17T01:19:53;1.80;99.90
2024;DHT22;1016;48.770;9.154;2022-12-17T01:22:38;1.80;99.90
2024;DHT22;1016;48.770;9.154;2022-12-17T01:25:22;1.80;99.90
2024;DHT22;1016;48.770;9.154;2022-12-17T01:28:06;1.80;99.90
2024;DHT22;1016;48.770;9.154;2022-12-17T01:30:50;1.70;99.90
2024;DHT22;1016;48.770;9.154;2022-12-17T01:33:34;1.70;99.90
2024;DHT22;1016;48.770;9.154;2022-12-17T01:36:18;1.70;99.90
2024;DHT22;1016;48.770;9.154;2022-12-17T01:39:02;1.70;99.90
2024;DHT22;1016;48.770;9.154;2022-12-17T01:41:46;1.70;99.90
2024;DHT22;1016;48.770;9.154;2022-12-17T01:44:51;1.70;99.90
2024;DHT22;1016;48.770;9.154;2022-12-17T01:50:34;1.60;99.90
2024;DHT22;1016;48.770;9.154;2022-12-17T01:53:23;1.60;99.90
2024;DHT22;1016;48.770;9.154;2022-12-17T01:56:09;1.60;99.90
2024;DHT22;1016;48.770;9.154;2022-12-17T01:58:54;1.50;99.90
2024;DHT22;1016;48.770;9.154;2022-12-17T02:01:39;1.50;99.90
2024;DHT22;1016;48.770;9.154;2022-12-17T02:04:23;1.50;99.90
2024;DHT22;1016;48.770;9.154;2022-12-17T02:13:16;1.50;99.90
2024;DHT22;1016;48.770;9.154;2022-12-17T02:16:23;1.50;99.90
2024;DHT22;1016;48.770;9.154;2022-12-17T02:22:30;1.50;99.90
2024;DHT22;1016;48.770;9.154;2022-12-17T02:25:30;1.40;99.90
2024;DHT22;1016;48.770;9.154;2022-12-17T02:28:17;1.40;99.90
2024;DHT22;1016;48.770;9.154;2022-12-17T02:31:02;1.40;99.90
2024;DHT22;1016;48.770;9.154;2022-12-17T02:33:46;1.40;99.90
2024;DHT22;1016;48.770;9.154;2022-12-17T02:36:33;1.40;99.90
2024;DHT22;1016;48.770;9.154;2022-12-17T02:39:17;1.40;99.90
2024;DHT22;1016;48.770;9.154;2022-12-17T02:42:02;1.40;99.90
2024;DHT22;1016;48.770;9.154;2022-12-17T02:44:46;1.40;99.90
2024;DHT22;1016;48.770;9.154;2022-12-17T02:47:30;1.40;99.90
2024;DHT22;1016;48.770;9.154;2022-12-17T02:50:14;1.40;99.90
2024;DHT22;1016;48.770;9.154;2022-12-17T02:52:59;1.40;99.90
2024;DHT22;1016;48.770;9.154;2022-12-17T02:55:44;1.40;99.90
2024;DHT22;1016;48.770;9.154;2022-12-17T02:58:28;1.30;99.90
2024;DHT22;1016;48.770;9.154;2022-12-17T03:01:13;1.40;99.90
2024;DHT22;1016;48.770;9.154;2022-12-17T03:03:57;1.40;99.90
2024;DHT22;1016;48.770;9.154;2022-12-17T03:06:42;1.40;99.90
2024;DHT22;1016;48.770;9.154;2022-12-17T03:09:25;1.30;99.90
2024;DHT22;1016;48.770;9.154;2022-12-17T03:12:09;1.30;99.90
2024;DHT22;1016;48.770;9.154;2022-12-17T03:14:54;1.40;99.90
2024;DHT22;1016;48.770;9.154;2022-12-17T03:17:38;1.30;99.90
2024;DHT22;1016;48.770;9.154;2022-12-17T03:20:22;1.30;99.90
2024;DHT22;1016;48.770;9.154;2022-12-17T03:23:08;1.30;99.90
2024;DHT22;1016;48.770;9.154;2022-12-17T03:25:52;1.30;99.90
2024;DHT22;1016;48.770;9.154;2022-12-17T03:28:37;1.30;99.90
2024;DHT22;1016;48.770;9.154;2022-12-17T03:31:21;1.30;99.90
2024;DHT22;1016;48.770;9.154;2022-12-17T03:34:05;1.30;99.90
2024;DHT22;1016;48.770;9.154;2022-12-17T03:36:50;1.30;99.90
2024;DHT22;1016;48.770;9.154;2022-12-17T03:39:33;1.40;99.90
2024;DHT22;1016;48.770;9.154;2022-12-17T03:42:18;1.50;99.90
2024;DHT22;1016;48.770;9.154;2022-12-17T03:45:02;1.60;99.90
2024;DHT22;1016;48.770;9.154;2022-12-17T03:47:46;1.60;99.90
2024;DHT22;1016;48.770;9.154;2022-12-17T03:50:30;1.60;99.90
2024;DHT22;1016;48.770;9.154;2022-12-17T03:53:14;1.70;99.90
2024;DHT22;1016;48.770;9.154;2022-12-17T03:55:58;1.80;99.90
2024;DHT22;1016;48.770;9.154;2022-12-17T03:58:42;1.90;99.90
2024;DHT22;1016;48.770;9.154;2022-12-17T04:01:26;1.90;99.90
2024;DHT22;1016;48.770;9.154;2022-12-17T04:04:11;1.90;99.90
2024;DHT22;1016;48.770;9.154;2022-12-17T04:06:54;1.80;99.90
2024;DHT22;1016;48.770;9.154;2022-12-17T04:09:38;1.70;99.90
2024;DHT22;1016;48.770;9.154;2022-12-17T04:12:23;1.80;99.90
2024;DHT22;1016;48.770;9.154;2022-12-17T04:15:07;1.80;99.90
2024;DHT22;1016;48.770;9.154;2022-12-17T04:17:51;1.80;99.90
2024;DHT22;1016;48.770;9.154;2022-12-17T04:20:35;1.90;99.90
2024;DHT22;1016;48.770;9.154;2022-12-17T04:23:19;1.80;99.90
2024;DHT22;1016;48.770;9.154;2022-12-17T04:26:03;1.90;99.90
2024;DHT22;1016;48.770;9.154;2022-12-17T04:28:47;1.90;99.90
2024;DHT22;1016;48.770;9.154;2022-12-17T04:31:35;2.00;99.90
2024;DHT22;1016;48.770;9.154;2022-12-17T04:34:20;1.90;99.90
2024;DHT22;1016;48.770;9.154;2022-12-17T04:37:04;1.80;99.90
2024;DHT22;1016;48.770;9.154;2022-12-17T04:39:48;1.70;99.90
2024;DHT22;1016;48.770;9.154;2022-12-17T04:42:32;1.50;99.90
2024;DHT22;1016;48.770;9.154;2022-12-17T04:45:16;1.30;99.90
2024;DHT22;1016;48.770;9.154;2022-12-17T04:48:01;1.30;99.90
2024;DHT22;1016;48.770;9.154;2022-12-17T04:50:46;1.30;99.90
2024;DHT22;1016;48.770;9.154;2022-12-17T04:53:30;1.20;99.90
2024;DHT22;1016;48.770;9.154;2022-12-17T04:56:14;1.10;99.90
2024;DHT22;1016;48.770;9.154;2022-12-17T04:58:58;1.10;99.90
2024;DHT22;1016;48.770;9.154;2022-12-17T05:01:42;1.20;99.90
2024;DHT22;1016;48.770;9.154;2022-12-17T05:04:26;1.20;99.90
2024;DHT22;1016;48.770;9.154;2022-12-17T05:07:10;1.20;99.90
2024;DHT22;1016;48.770;9.154;2022-12-17T05:09:54;1.20;99.90
2024;DHT22;1016;48.770;9.154;2022-12-17T05:12:38;1.30;99.90
2024;DHT22;1016;48.770;9.154;2022-12-17T05:15:22;1.30;99.90
2024;DHT22;1016;48.770;9.154;2022-12-17T05:18:07;1.50;99.90
2024;DHT22;1016;48.770;9.154;2022-12-17T05:20:51;1.60;99.90
2024;DHT22;1016;48.770;9.154;2022-12-17T05:23:36;1.70;99.90
2024;DHT22;1016;48.770;9.154;2022-12-17T05:26:25;1.80;99.90
2024;DHT22;1016;48.770;9.154;2022-12-17T05:29:10;1.90;99.90
2024;DHT22;1016;48.770;9.154;2022-12-17T05:31:55;1.90;99.90
2024;DHT22;1016;48.770;9.154;2022-12-17T05:34:39;1.90;99.90
2024;DHT22;1016;48.770;9.154;2022-12-17T05:37:23;2.00;99.90
2024;DHT22;1016;48.770;9.154;2022-12-17T05:40:08;2.00;99.90
2024;DHT22;1016;48.770;9.154;2022-12-17T05:43:02;2.00;99.90
2024;DHT22;1016;48.770;9.154;2022-12-17T05:45:46;2.00;99.90
2024;DHT22;1016;48.770;9.154;2022-12-17T05:48:31;2.00;99.90
2024;DHT22;1016;48.770;9.154;2022-12-17T05:51:17;1.80;99.90
2024;DHT22;1016;48.770;9.154;2022-12-17T05:54:01;1.70;99.90
2024;DHT22;1016;48.770;9.154;2022-12-17T05:56:45;1.60;99.90
2024;DHT22;1016;48.770;9.154;2022-12-17T05:59:29;1.50;99.90
2024;DHT22;1016;48.770;9.154;2022-12-17T06:02:13;1.40;99.90
2024;DHT22;1016;48.770;9.154;2022-12-17T06:04:57;1.50;99.90
2024;DHT22;1016;48.770;9.154;2022-12-17T06:07:41;1.50;99.90
2024;DHT22;1016;48.770;9.154;2022-12-17T06:10:25;1.60;99.90
2024;DHT22;1016;48.770;9.154;2022-12-17T06:13:10;1.60;99.90
2024;DHT22;1016;48.770;9.154;2022-12-17T06:15:54;1.50;99.90
2024;DHT22;1016;48.770;9.154;2022-12-17T06:18:38;1.50;99.90
2024;DHT22;1016;48.770;9.154;2022-12-17T06:21:22;1.40;99.90
2024;DHT22;1016;48.770;9.154;2022-12-17T06:24:06;1.30;99.90
2024;DHT22;1016;48.770;9.154;2022-12-17T06:26:50;1.40;99.90
2024;DHT22;1016;48.770;9.154;2022-12-17T06:29:35;1.40;99.90
2024;DHT22;1016;48.770;9.154;2022-12-17T06:32:19;1.50;99.90
2024;DHT22;1016;48.770;9.154;2022-12-17T06:35:03;1.50;99.90
2024;DHT22;1016;48.770;9.154;2022-12-17T06:38:00;1.20;99.90
2024;DHT22;1016;48.770;9.154;2022-12-17T06:40:44;1.20;99.90
2024;DHT22;1016;48.770;9.154;2022-12-17T06:43:41;1.20;99.90
2024;DHT22;1016;48.770;9.154;2022-12-17T06:46:25;1.30;99.90
2024;DHT22;1016;48.770;9.154;2022-12-17T06:49:10;1.10;99.90
2024;DHT22;1016;48.770;9.154;2022-12-17T06:51:53;1.10;99.90
2024;DHT22;1016;48.770;9.154;2022-12-17T06:54:37;1.20;99.90
2024;DHT22;1016;48.770;9.154;2022-12-17T06:57:21;1.30;99.90
2024;DHT22;1016;48.770;9.154;2022-12-17T07:00:06;1.30;99.90
2024;DHT22;1016;48.770;9.154;2022-12-17T07:02:57;1.30;99.90
2024;DHT22;1016;48.770;9.154;2022-12-17T07:05:41;1.20;99.90
2024;DHT22;1016;48.770;9.154;2022-12-17T07:08:25;1.30;99.90
2024;DHT22;1016;48.770;9.154;2022-12-17T07:11:09;1.30;99.90
2024;DHT22;1016;48.770;9.154;2022-12-17T07:13:53;1.30;99.90
2024;DHT22;1016;48.770;9.154;2022-12-17T07:16:37;1.40;99.90
2024;DHT22;1016;48.770;9.154;2022-12-17T07:19:21;1.30;99.90
2024;DHT22;1016;48.770;9.154;2022-12-17T07:22:05;1.30;99.90
2024;DHT22;1016;48.770;9.154;2022-12-17T07:24:49;1.30;99.90
2024;DHT22;1016;48.770;9.154;2022-12-17T07:27:33;1.30;99.90
2024;DHT22;1016;48.770;9.154;2022-12-17T07:30:31;1.30;99.90
2024;DHT22;1016;48.770;9.154;2022-12-17T07:33:15;1.30;99.90
2024;DHT22;1016;48.770;9.154;2022-12-17T07:35:59;1.30;99.90
2024;DHT22;1016;48.770;9.154;2022-12-17T07:38:44;1.20;99.90
2024;DHT22;1016;48.770;9.154;2022-12-17T07:41:28;1.20;99.90
2024;DHT22;1016;48.770;9.154;2022-12-17T07:44:12;1.20;99.90
2024;DHT22;1016;48.770;9.154;2022-12-17T07:46:56;1.30;99.90
2024;DHT22;1016;48.770;9.154;2022-12-17T07:49:40;1.40;99.90
2024;DHT22;1016;48.770;9.154;2022-12-17T07:52:25;1.40;99.90
2024;DHT22;1016;48.770;9.154;2022-12-17T07:55:09;1.40;99.90
2024;DHT22;1016;48.770;9.154;2022-12-17T07:58:05;1.30;99.90
2024;DHT22;1016;48.770;9.154;2022-12-17T08:00:49;1.40;99.90
2024;DHT22;1016;48.770;9.154;2022-12-17T08:03:33;1.40;99.90
2024;DHT22;1016;48.770;9.154;2022-12-17T08:06:18;1.30;99.90
2024;DHT22;1016;48.770;9.154;2022-12-17T08:09:02;1.30;99.90
2024;DHT22;1016;48.770;9.154;2022-12-17T08:11:46;1.20;99.90
2024;DHT22;1016;48.770;9.154;2022-12-17T08:14:30;1.20;99.90
2024;DHT22;1016;48.770;9.154;2022-12-17T08:17:14;1.20;99.90
2024;DHT22;1016;48.770;9.154;2022-12-17T08:20:12;1.20;99.90
2024;DHT22;1016;48.770;9.154;2022-12-17T08:23:01;1.10;99.90
2024;DHT22;1016;48.770;9.154;2022-12-17T08:25:45;0.90;99.90
2024;DHT22;1016;48.770;9.154;2022-12-17T08:28:29;0.90;99.90
2024;DHT22;1016;48.770;9.154;2022-12-17T08:31:14;0.90;99.90
2024;DHT22;1016;48.770;9.154;2022-12-17T08:33:57;0.90;99.90
2024;DHT22;1016;48.770;9.154;2022-12-17T08:36:41;0.90;99.90
2024;DHT22;1016;48.770;9.154;2022-12-17T08:39:25;1.00;99.90
2024;DHT22;1016;48.770;9.154;2022-12-17T08:42:09;1.10;99.90
2024;DHT22;1016;48.770;9.154;2022-12-17T08:44:53;1.10;99.90
2024;DHT22;1016;48.770;9.154;2022-12-17T08:47:37;1.00;99.90
2024;DHT22;1016;48.770;9.154;2022-12-17T08:50:21;1.00;99.90
2024;DHT22;1016;48.770;9.154;2022-12-17T08:53:05;1.10;99.90
2024;DHT22;1016;48.770;9.154;2022-12-17T08:55:49;0.90;99.90
2024;DHT22;1016;48.770;9.154;2022-12-17T08:58:33;0.90;99.90
2024;DHT22;1016;48.770;9.154;2022-12-17T09:01:17;1.00;99.90
2024;DHT22;1016;48.770;9.154;2022-12-17T09:04:01;1.00;99.90
2024;DHT22;1016;48.770;9.154;2022-12-17T09:06:45;1.00;99.90
2024;DHT22;1016;48.770;9.154;2022-12-17T09:09:29;0.80;99.90
2024;DHT22;1016;48.770;9.154;2022-12-17T09:12:13;0.60;99.90
2024;DHT22;1016;48.770;9.154;2022-12-17T09:14:57;0.40;99.90
2024;DHT22;1016;48.770;9.154;2022-12-17T09:17:41;0.30;99.90
2024;DHT22;1016;48.770;9.154;2022-12-17T09:20:26;0.20;99.90
2024;DHT22;1016;48.770;9.154;2022-12-17T09:23:14;0.20;99.90
2024;DHT22;1016;48.770;9.154;2022-12-17T09:25:58;0.30;99.90
2024;DHT22;1016;48.770;9.154;2022-12-17T09:28:42;0.40;99.90
2024;DHT22;1016;48.770;9.154;2022-12-17T09:31:26;0.60;99.90
2024;DHT22;1016;48.770;9.154;2022-12-17T09:34:11;0.60;99.90
2024;DHT22;1016;48.770;9.154;2022-12-17T09:36:55;0.60;99.90
2024;DHT22;1016;48.770;9.154;2022-12-17T09:39:39;0.70;99.90
2024;DHT22;1016;48.770;9.154;2022-12-17T09:42:29;0.80;99.90
2024;DHT22;1016;48.770;9.154;2022-12-17T09:45:26;1.00;99.90
2024;DHT22;1016;48.770;9.154;2022-12-17T09:51:24;1.10;99.90
2024;DHT22;1016;48.770;9.154;2022-12-17T09:57:17;1.20;99.90
2024;DHT22;1016;48.770;9.154;2022-12-17T10:00:23;1.20;99.90
2024;DHT22;1016;48.770;9.154;2022-12-17T10:03:14;1.20;99.90
2024;DHT22;1016;48.770;9.154;2022-12-17T10:06:11;1.20;99.90
2024;DHT22;1016;48.770;9.154;2022-12-17T10:08:59;1.30;99.90
2024;DHT22;1016;48.770;9.154;2022-12-17T10:12:02;1.40;99.90
2024;DHT22;1016;48.770;9.154;2022-12-17T10:14:51;1.60;99.90
2024;DHT22;1016;48.770;9.154;2022-12-17T10:17:35;1.60;99.90
2024;DHT22;1016;48.770;9.154;2022-12-17T10:20:32;1.70;99.90
2024;DHT22;1016;48.770;9.154;2022-12-17T10:23:30;1.70;99.90
2024;DHT22;1016;48.770;9.154;2022-12-17T10:26:22;1.80;99.90
2024;DHT22;1016;48.770;9.154;2022-12-17T10:29:22;1.90;99.90
2024;DHT22;1016;48.770;9.154;2022-12-17T10:41:02;1.90;99.90
2024;DHT22;1016;48.770;9.154;2022-12-17T10:43:47;2.00;99.90
2024;DHT22;1016;48.770;9.154;2022-12-17T10:46:33;2.10;99.90
2024;DHT22;1016;48.770;9.154;2022-12-17T10:49:19;2.20;99.90
2024;DHT22;1016;48.770;9.154;2022-12-17T10:52:27;2.20;99.90
2024;DHT22;1016;48.770;9.154;2022-12-17T10:55:24;2.10;99.90
2024;DHT22;1016;48.770;9.154;2022-12-17T10:58:15;2.10;99.90
2024;DHT22;1016;48.770;9.154;2022-12-17T11:01:01;2.10;99.90
2024;DHT22;1016;48.770;9.154;2022-12-17T11:03:56;2.10;99.90
2024;DHT22;1016;48.770;9.154;2022-12-17T11:06:47;2.10;99.90
2024;DHT22;1016;48.770;9.154;2022-12-17T11:09:59;2.20;99.90
2024;DHT22;1016;48.770;9.154;2022-12-17T11:12:51;2.20;99.90
2024;DHT22;1016;48.770;9.154;2022-12-17T11:15:43;2.30;99.90
2024;DHT22;1016;48.770;9.154;2022-12-17T11:18:51;2.40;99.90
2024;DHT22;1016;48.770;9.154;2022-12-17T11:21:42;2.40;99.90
2024;DHT22;1016;48.770;9.154;2022-12-17T11:24:32;2.50;99.90
2024;DHT22;1016;48.770;9.154;2022-12-17T11:27:21;2.50;99.90
2024;DHT22;1016;48.770;9.154;2022-12-17T11:30:15;2.50;99.90
2024;DHT22;1016;48.770;9.154;2022-12-17T11:33:19;2.50;99.90
2024;DHT22;1016;48.770;9.154;2022-12-17T11:36:17;2.50;99.90
2024;DHT22;1016;48.770;9.154;2022-12-17T11:39:34;2.50;99.90
2024;DHT22;1016;48.770;9.154;2022-12-17T11:42:31;2.50;99.90
2024;DHT22;1016;48.770;9.154;2022-12-17T11:45:30;2.40;99.90
2024;DHT22;1016;48.770;9.154;2022-12-17T11:48:38;2.30;99.90
2024;DHT22;1016;48.770;9.154;2022-12-17T11:51:46;2.30;99.90
2024;DHT22;1016;48.770;9.154;2022-12-17T11:55:02;2.20;99.90
2024;DHT22;1016;48.770;9.154;2022-12-17T11:57:59;2.10;99.90
2024;DHT22;1016;48.770;9.154;2022-12-17T12:00:58;1.90;99.90
2024;DHT22;1016;48.770;9.154;2022-12-17T12:07:12;1.90;99.90
2024;DHT22;1016;48.770;9.154;2022-12-17T12:10:08;1.90;99.90
2024;DHT22;1016;48.770;9.154;2022-12-17T12:16:14;2.00;99.90
2024;DHT22;1016;48.770;9.154;2022-12-17T12:19:01;2.20;99.90
2024;DHT22;1016;48.770;9.154;2022-12-17T12:25:19;2.40;99.90
2024;DHT22;1016;48.770;9.154;2022-12-17T12:28:16;2.50;99.90
2024;DHT22;1016;48.770;9.154;2022-12-17T12:31:27;2.60;99.90
2024;DHT22;1016;48.770;9.154;2022-12-17T12:34:17;2.60;99.90
2024;DHT22;1016;48.770;9.154;2022-12-17T12:37:04;2.60;99.90
2024;DHT22;1016;48.770;9.154;2022-12-17T12:42:55;2.60;99.90
2024;DHT22;1016;48.770;9.154;2022-12-17T12:45:49;2.60;99.90
2024;DHT22;1016;48.770;9.154;2022-12-17T12:51:30;2.60;99.90
2024;DHT22;1016;48.770;9.154;2022-12-17T12:54:49;2.70;99.90
2024;DHT22;1016;48.770;9.154;2022-12-17T12:57:40;2.70;99.90
2024;DHT22;1016;48.770;9.154;2022-12-17T13:06:46;2.50;99.90
2024;DHT22;1016;48.770;9.154;2022-12-17T13:14:34;2.40;99.90
2024;DHT22;1016;48.770;9.154;2022-12-17T13:17:22;2.40;99.90
2024;DHT22;1016;48.770;9.154;2022-12-17T13:24:49;2.40;99.90
2024;DHT22;1016;48.770;9.154;2022-12-17T13:36:01;2.50;99.90
2024;DHT22;1016;48.770;9.154;2022-12-17T13:39:07;2.60;99.90
2024;DHT22;1016;48.770;9.154;2022-12-17T13:41:38;2.60;99.90
2024;DHT22;1016;48.770;9.154;2022-12-17T13:44:19;2.60;99.90
2024;DHT22;1016;48.770;9.154;2022-12-17T13:46:48;2.50;99.90
2024;DHT22;1016;48.770;9.154;2022-12-17T13:49:20;2.40;99.90
2024;DHT22;1016;48.770;9.154;2022-12-17T13:51:46;2.50;99.90
2024;DHT22;1016;48.770;9.154;2022-12-17T13:54:18;2.50;99.90
2024;DHT22;1016;48.770;9.154;2022-12-17T13:56:44;2.40;99.90
2024;DHT22;1016;48.770;9.154;2022-12-17T13:59:36;2.30;99.90
2024;DHT22;1016;48.770;9.154;2022-12-17T14:02:02;2.20;99.90
2024;DHT22;1016;48.770;9.154;2022-12-17T14:04:31;2.20;99.90
2024;DHT22;1016;48.770;9.154;2022-12-17T14:07:03;2.10;99.90
2024;DHT22;1016;48.770;9.154;2022-12-17T14:09:38;2.00;99.90
2024;DHT22;1016;48.770;9.154;2022-12-17T14:12:05;2.00;99.90
2024;DHT22;1016;48.770;9.154;2022-12-17T14:17:25;2.00;99.90
2024;DHT22;1016;48.770;9.154;2022-12-17T14:20:15;1.90;99.90
2024;DHT22;1016;48.770;9.154;2022-12-17T14:22:43;1.90;99.90
2024;DHT22;1016;48.770;9.154;2022-12-17T14:25:17;1.90;99.90
2024;DHT22;1016;48.770;9.154;2022-12-17T14:28:00;1.90;99.90
2024;DHT22;1016;48.770;9.154;2022-12-17T14:30:36;1.90;99.90
2024;DHT22;1016;48.770;9.154;2022-12-17T14:33:03;1.80;99.90
2024;DHT22;1016;48.770;9.154;2022-12-17T14:35:32;1.80;99.90
2024;DHT22;1016;48.770;9.154;2022-12-17T14:37:59;1.80;99.90
2024;DHT22;1016;48.770;9.154;2022-12-17T14:40:25;1.70;99.90
2024;DHT22;1016;48.770;9.154;2022-12-17T14:42:52;1.70;99.90
2024;DHT22;1016;48.770;9.154;2022-12-17T14:45:24;1.80;99.90
2024;DHT22;1016;48.770;9.154;2022-12-17T14:48:01;1.80;99.90
2024;DHT22;1016;48.770;9.154;2022-12-17T14:50:33;1.80;99.90
2024;DHT22;1016;48.770;9.154;2022-12-17T14:53:01;1.80;99.90
2024;DHT22;1016;48.770;9.154;2022-12-17T14:56:17;1.80;99.90
2024;DHT22;1016;48.770;9.154;2022-12-17T14:58:20;1.80;99.90
2024;DHT22;1016;48.770;9.154;2022-12-17T15:03:23;2.00;99.90
2024;DHT22;1016;48.770;9.154;2022-12-17T15:06:01;1.90;99.90
2024;DHT22;1016;48.770;9.154;2022-12-17T15:08:32;1.90;99.90
2024;DHT22;1016;48.770;9.154;2022-12-17T15:10:58;1.90;99.90
2024;DHT22;1016;48.770;9.154;2022-12-17T15:13:23;1.90;99.90
2024;DHT22;1016;48.770;9.154;2022-12-17T15:15:49;1.90;99.90
2024;DHT22;1016;48.770;9.154;2022-12-17T15:18:14;1.90;99.90
2024;DHT22;1016;48.770;9.154;2022-12-17T15:20:40;1.80;99.90
2024;DHT22;1016;48.770;9.154;2022-12-17T15:23:15;1.80;99.90
2024;DHT22;1016;48.770;9.154;2022-12-17T15:25:41;1.70;99.90
2024;DHT22;1016;48.770;9.154;2022-12-17T15:28:09;1.70;99.90
2024;DHT22;1016;48.770;9.154;2022-12-17T15:30:34;1.70;99.90
2024;DHT22;1016;48.770;9.154;2022-12-17T15:33:00;1.70;99.90
2024;DHT22;1016;48.770;9.154;2022-12-17T15:35:26;1.70;99.90
2024;DHT22;1016;48.770;9.154;2022-12-17T15:37:51;1.70;99.90
2024;DHT22;1016;48.770;9.154;2022-12-17T15:40:17;1.70;99.90
2024;DHT22;1016;48.770;9.154;2022-12-17T15:42:42;1.70;99.90
2024;DHT22;1016;48.770;9.154;2022-12-17T15:45:26;1.70;99.90
2024;DHT22;1016;48.770;9.154;2022-12-17T15:47:52;1.70;99.90
2024;DHT22;1016;48.770;9.154;2022-12-17T15:50:18;1.70;99.90
2024;DHT22;1016;48.770;9.154;2022-12-17T15:52:43;1.60;99.90
2024;DHT22;1016;48.770;9.154;2022-12-17T15:55:10;1.60;99.90
2024;DHT22;1016;48.770;9.154;2022-12-17T15:57:39;1.50;99.90
2024;DHT22;1016;48.770;9.154;2022-12-17T16:00:05;1.50;99.90
2024;DHT22;1016;48.770;9.154;2022-12-17T16:02:30;1.40;99.90
2024;DHT22;1016;48.770;9.154;2022-12-17T16:04:56;1.30;99.90
2024;DHT22;1016;48.770;9.154;2022-12-17T16:07:22;1.20;99.90
2024;DHT22;1016;48.770;9.154;2022-12-17T16:09:47;1.20;99.90
2024;DHT22;1016;48.770;9.154;2022-12-17T16:12:13;1.20;99.90
2024;DHT22;1016;48.770;9.154;2022-12-17T16:14:38;1.10;99.90
2024;DHT22;1016;48.770;9.154;2022-12-17T16:17:04;1.10;99.90
2024;DHT22;1016;48.770;9.154;2022-12-17T16:19:29;1.10;99.90
2024;DHT22;1016;48.770;9.154;2022-12-17T16:21:55;1.10;99.90
2024;DHT22;1016;48.770;9.154;2022-12-17T16:24:20;1.20;99.90
2024;DHT22;1016;48.770;9.154;2022-12-17T16:26:46;1.20;99.90
2024;DHT22;1016;48.770;9.154;2022-12-17T16:29:11;1.10;99.90
2024;DHT22;1016;48.770;9.154;2022-12-17T16:31:37;1.20;99.90
2024;DHT22;1016;48.770;9.154;2022-12-17T16:34:09;1.20;99.90
2024;DHT22;1016;48.770;9.154;2022-12-17T16:36:35;1.20;99.90
2024;DHT22;1016;48.770;9.154;2022-12-17T16:39:01;1.30;99.90
2024;DHT22;1016;48.770;9.154;2022-12-17T16:41:27;1.40;99.90
2024;DHT22;1016;48.770;9.154;2022-12-17T16:43:53;1.30;99.90
2024;DHT22;1016;48.770;9.154;2022-12-17T16:46:25;1.20;99.90
2024;DHT22;1016;48.770;9.154;2022-12-17T16:48:51;1.20;99.90
2024;DHT22;1016;48.770;9.154;2022-12-17T16:51:18;1.20;99.90
2024;DHT22;1016;48.770;9.154;2022-12-17T16:53:44;1.30;99.90
2024;DHT22;1016;48.770;9.154;2022-12-17T16:56:19;1.30;99.90
2024;DHT22;1016;48.770;9.154;2022-12-17T16:58:45;1.30;99.90
2024;DHT22;1016;48.770;9.154;2022-12-17T17:01:11;1.30;99.90
2024;DHT22;1016;48.770;9.154;2022-12-17T17:03:40;1.30;99.90
2024;DHT22;1016;48.770;9.154;2022-12-17T17:06:07;1.30;99.90
2024;DHT22;1016;48.770;9.154;2022-12-17T17:08:35;1.30;99.90
2024;DHT22;1016;48.770;9.154;2022-12-17T17:11:15;1.30;99.90
2024;DHT22;1016;48.770;9.154;2022-12-17T17:13:43;1.30;99.90
2024;DHT22;1016;48.770;9.154;2022-12-17T17:16:09;1.30;99.90
2024;DHT22;1016;48.770;9.154;2022-12-17T17:18:36;1.20;99.90
2024;DHT22;1016;48.770;9.154;2022-12-17T17:21:24;1.20;99.90
2024;DHT22;1016;48.770;9.154;2022-12-17T17:24:02;1.20;99.90
2024;DHT22;1016;48.770;9.154;2022-12-17T17:26:32;1.10;99.90
2024;DHT22;1016;48.770;9.154;2022-12-17T17:28:58;1.10;99.90
2024;DHT22;1016;48.770;9.154;2022-12-17T17:31:25;1.10;99.90
2024;DHT22;1016;48.770;9.154;2022-12-17T17:33:51;1.00;99.90
2024;DHT22;1016;48.770;9.154;2022-12-17T17:36:25;1.00;99.90
2024;DHT22;1016;48.770;9.154;2022-12-17T17:38:52;1.00;99.90
2024;DHT22;1016;48.770;9.154;2022-12-17T17:41:23;1.00;99.90
2024;DHT22;1016;48.770;9.154;2022-12-17T17:43:56;1.00;99.90
2024;DHT22;1016;48.770;9.154;2022-12-17T17:46:23;1.00;99.90
2024;DHT22;1016;48.770;9.154;2022-12-17T17:48:49;1.00;99.90
2024;DHT22;1016;48.770;9.154;2022-12-17T17:51:20;1.00;99.90
2024;DHT22;1016;48.770;9.154;2022-12-17T17:53:48;0.90;99.90
2024;DHT22;1016;48.770;9.154;2022-12-17T17:56:16;0.90;99.90
2024;DHT22;1016;48.770;9.154;2022-12-17T17:58:44;0.90;99.90
2024;DHT22;1016;48.770;9.154;2022-12-17T18:01:14;1.00;99.90
2024;DHT22;1016;48.770;9.154;2022-12-17T18:03:39;1.00;99.90
2024;DHT22;1016;48.770;9.154;2022-12-17T18:06:07;1.00;99.90
2024;DHT22;1016;48.770;9.154;2022-12-17T18:08:33;0.90;99.90
2024;DHT22;1016;48.770;9.154;2022-12-17T18:11:00;0.90;99.90
2024;DHT22;1016;48.770;9.154;2022-12-17T18:13:26;0.80;99.90
2024;DHT22;1016;48.770;9.154;2022-12-17T18:16:11;0.70;99.90
2024;DHT22;1016;48.770;9.154;2022-12-17T18:18:37;0.70;99.90
2024;DHT22;1016;48.770;9.154;2022-12-17T18:21:04;0.60;99.90
2024;DHT22;1016;48.770;9.154;2022-12-17T18:23:30;0.60;99.90
2024;DHT22;1016;48.770;9.154;2022-12-17T18:26:02;0.60;99.90
2024;DHT22;1016;48.770;9.154;2022-12-17T18:28:28;0.50;99.90
2024;DHT22;1016;48.770;9.154;2022-12-17T18:30:54;0.50;99.90
2024;DHT22;1016;48.770;9.154;2022-12-17T18:33:19;0.40;99.90
2024;DHT22;1016;48.770;9.154;2022-12-17T18:35:44;0.40;99.90
2024;DHT22;1016;48.770;9.154;2022-12-17T18:38:10;0.30;99.90
2024;DHT22;1016;48.770;9.154;2022-12-17T18:40:35;0.30;99.90
2024;DHT22;1016;48.770;9.154;2022-12-17T18:43:01;0.30;99.90
2024;DHT22;1016;48.770;9.154;2022-12-17T18:45:45;0.30;99.90
2024;DHT22;1016;48.770;9.154;2022-12-17T18:48:11;0.30;99.90
2024;DHT22;1016;48.770;9.154;2022-12-17T18:50:36;0.30;99.90
2024;DHT22;1016;48.770;9.154;2022-12-17T18:53:01;0.30;99.90
2024;DHT22;1016;48.770;9.154;2022-12-17T18:55:27;0.30;99.90
2024;DHT22;1016;48.770;9.154;2022-12-17T18:57:52;0.30;99.90
2024;DHT22;1016;48.770;9.154;2022-12-17T19:00:18;0.30;99.90
2024;DHT22;1016;48.770;9.154;2022-12-17T19:02:44;0.30;99.90